Time;durP1;ratioP1;P1;durP2;ratioP2;P2;SDS_P1;SDS_P2;PMS_P1;PMS_P2;Temp;Humidity;BMP_temperature;BMP_pressure;BME280_temperature;BME280_humidity;BME280_pressure;Samples;Min_cycle;Max_cycle;Signal;HPM_P1;HPM_P2
2022/06/15 00:02:48;;;;;;;;;;;17.30;99.90;;;;;;8378099;28;20379;-76
2022/06/15 00:06:50;;;;;;;;;;;17.20;99.90;;;;;;8370426;28;19932;-76
2022/06/15 00:10:51;;;;;;;;;;;17.20;99.90;;;;;;8368420;28;20305;-76
2022/06/15 00:14:55;;;;;;;;;;;17.10;99.90;;;;;;8382256;28;19941;-76
2022/06/15 00:18:57;;;;;;;;;;;17.10;99.90;;;;;;8382073;28;19944;-76
2022/06/15 00:22:59;;;;;;;;;;;17.00;99.90;;;;;;8360330;28;19944;-75
2022/06/15 00:27:03;;;;;;;;;;;17.00;99.90;;;;;;8410310;28;19933;-76
2022/06/15 00:31:05;;;;;;;;;;;17.00;99.90;;;;;;8378236;28;20360;-75
2022/06/15 00:35:10;;;;;;;;;;;16.90;99.90;;;;;;8371140;28;19928;-76
2022/06/15 00:39:11;;;;;;;;;;;16.90;99.90;;;;;;8391369;28;20134;-75
2022/06/15 00:43:49;;;;;;;;;;;16.80;99.90;;;;;;8402283;28;20272;-76
2022/06/15 00:47:50;;;;;;;;;;;16.80;99.90;;;;;;8364900;28;19928;-76
2022/06/15 00:51:55;;;;;;;;;;;16.70;99.90;;;;;;8375690;28;19940;-75
2022/06/15 00:55:56;;;;;;;;;;;16.70;99.90;;;;;;8365225;28;19925;-75
2022/06/15 00:59:59;;;;;;;;;;;16.60;99.90;;;;;;8378166;28;20120;-75
2022/06/15 01:04:03;;;;;;;;;;;16.60;99.90;;;;;;8369155;28;19928;-76
2022/06/15 01:08:04;;;;;;;;;;;16.50;99.90;;;;;;8374232;28;19924;-75
2022/06/15 01:12:06;;;;;;;;;;;16.50;99.90;;;;;;8375940;28;19933;-75
2022/06/15 01:16:16;;;;;;;;;;;16.40;99.90;;;;;;8372823;28;19983;-75
2022/06/15 01:20:17;;;;;;;;;;;16.40;99.90;;;;;;8378898;28;20381;-75
2022/06/15 01:24:39;;;;;;;;;;;16.40;99.90;;;;;;8378880;28;19932;-75
2022/06/15 01:28:46;;;;;;;;;;;16.30;99.90;;;;;;8377991;28;19929;-75
2022/06/15 01:33:07;;;;;;;;;;;16.20;99.90;;;;;;8380346;28;20288;-75
2022/06/15 01:37:21;;;;;;;;;;;16.20;99.90;;;;;;8373535;28;20018;-75
2022/06/15 01:41:22;;;;;;;;;;;16.10;99.90;;;;;;8373530;28;20375;-75
2022/06/15 01:45:26;;;;;;;;;;;16.10;99.90;;;;;;8373935;28;20140;-76
2022/06/15 01:49:32;;;;;;;;;;;16.00;99.90;;;;;;8387115;28;19931;-76
2022/06/15 01:53:36;;;;;;;;;;;16.00;99.90;;;;;;8368467;28;19924;-75
2022/06/15 01:57:39;;;;;;;;;;;15.90;99.90;;;;;;8381731;28;19978;-75
2022/06/15 02:02:00;;;;;;;;;;;15.90;99.90;;;;;;8365583;28;20303;-75
2022/06/15 02:06:12;;;;;;;;;;;15.80;99.90;;;;;;8378099;28;19933;-76
2022/06/15 02:10:20;;;;;;;;;;;15.70;99.90;;;;;;8371074;28;19925;-75
2022/06/15 02:14:26;;;;;;;;;;;15.70;99.90;;;;;;8379881;28;20364;-75
2022/06/15 02:18:27;;;;;;;;;;;15.70;99.90;;;;;;8387703;28;20287;-76
2022/06/15 02:22:31;;;;;;;;;;;15.60;99.90;;;;;;8375049;28;19932;-75
2022/06/15 02:26:35;;;;;;;;;;;15.60;99.90;;;;;;8381603;28;20245;-76
2022/06/15 02:30:37;;;;;;;;;;;15.50;99.90;;;;;;8371871;28;19924;-76
2022/06/15 02:34:39;;;;;;;;;;;15.50;99.90;;;;;;8373031;28;19928;-75
2022/06/15 02:38:44;;;;;;;;;;;15.50;99.90;;;;;;8368094;28;19925;-75
2022/06/15 02:42:46;;;;;;;;;;;15.40;99.90;;;;;;8381958;28;19978;-75
2022/06/15 02:46:48;;;;;;;;;;;15.40;99.90;;;;;;8382600;28;19929;-75
2022/06/15 02:50:54;;;;;;;;;;;15.40;99.90;;;;;;8374436;28;20364;-75
2022/06/15 02:54:57;;;;;;;;;;;15.30;99.90;;;;;;8369442;28;19932;-75
2022/06/15 02:58:58;;;;;;;;;;;15.40;99.90;;;;;;8380759;28;19924;-75
2022/06/15 03:03:00;;;;;;;;;;;15.30;99.90;;;;;;8371750;28;19928;-75
2022/06/15 03:07:02;;;;;;;;;;;15.30;99.90;;;;;;8372477;28;20284;-75
2022/06/15 03:11:03;;;;;;;;;;;15.30;99.90;;;;;;8367928;28;19925;-75
2022/06/15 03:15:05;;;;;;;;;;;15.30;99.90;;;;;;8368714;28;19928;-76
2022/06/15 03:19:07;;;;;;;;;;;15.30;99.90;;;;;;8371770;28;19951;-75
2022/06/15 03:23:09;;;;;;;;;;;15.20;99.90;;;;;;8375628;28;19940;-75
2022/06/15 03:27:11;;;;;;;;;;;15.20;99.90;;;;;;8388668;28;19933;-75
2022/06/15 03:31:13;;;;;;;;;;;15.20;99.90;;;;;;8378366;28;19932;-75
2022/06/15 03:35:15;;;;;;;;;;;15.10;99.90;;;;;;8365751;28;19928;-75
2022/06/15 03:39:16;;;;;;;;;;;15.10;99.90;;;;;;8375824;28;19931;-75
2022/06/15 03:43:19;;;;;;;;;;;15.10;99.90;;;;;;8370803;28;19932;-75
2022/06/15 03:47:20;;;;;;;;;;;15.00;99.90;;;;;;8377417;28;19933;-75
2022/06/15 03:51:22;;;;;;;;;;;15.00;99.90;;;;;;8363018;28;19928;-75
2022/06/15 03:55:24;;;;;;;;;;;15.00;99.90;;;;;;8369761;28;20383;-76
2022/06/15 03:59:25;;;;;;;;;;;15.00;99.90;;;;;;8371103;28;20304;-76
2022/06/15 04:03:27;;;;;;;;;;;15.00;99.90;;;;;;8360767;28;19955;-75
2022/06/15 04:12:10;;;;;;;;;;;15.00;99.90;;;;;;8385195;28;19935;-75
2022/06/15 04:16:19;;;;;;;;;;;15.00;99.90;;;;;;8391206;28;19932;-75
2022/06/15 04:20:31;;;;;;;;;;;15.00;99.90;;;;;;8390063;28;19932;-75
2022/06/15 04:24:33;;;;;;;;;;;15.10;99.90;;;;;;8382221;28;20325;-75
2022/06/15 04:28:37;;;;;;;;;;;15.10;99.90;;;;;;8384834;28;19928;-75
2022/06/15 04:32:39;;;;;;;;;;;15.20;99.90;;;;;;8391513;28;20269;-75
2022/06/15 04:36:41;;;;;;;;;;;15.20;99.90;;;;;;8390610;28;20225;-75
2022/06/15 04:40:44;;;;;;;;;;;15.20;99.90;;;;;;8395119;28;19932;-75
2022/06/15 04:44:46;;;;;;;;;;;15.30;99.90;;;;;;8386626;28;19928;-76
2022/06/15 04:48:48;;;;;;;;;;;15.30;99.90;;;;;;8376671;28;21545;-75
2022/06/15 04:52:49;;;;;;;;;;;15.30;99.90;;;;;;8388889;28;19940;-76
2022/06/15 04:56:51;;;;;;;;;;;15.40;99.90;;;;;;8381025;28;19932;-75
2022/06/15 05:00:53;;;;;;;;;;;15.50;99.90;;;;;;8389842;28;19965;-75
2022/06/15 05:04:56;;;;;;;;;;;15.60;99.90;;;;;;8386963;28;19935;-76
2022/06/15 05:08:58;;;;;;;;;;;15.70;99.90;;;;;;8386958;28;19933;-75
2022/06/15 05:12:59;;;;;;;;;;;15.80;99.90;;;;;;8381425;28;20376;-76
2022/06/15 05:17:01;;;;;;;;;;;15.90;99.90;;;;;;8381083;28;20395;-76
2022/06/15 05:21:03;;;;;;;;;;;16.00;99.90;;;;;;8389829;28;19980;-76
2022/06/15 05:25:06;;;;;;;;;;;16.20;99.90;;;;;;8391338;28;19950;-76
2022/06/15 05:29:08;;;;;;;;;;;16.20;99.90;;;;;;8386732;28;20309;-76
2022/06/15 05:33:14;;;;;;;;;;;16.30;99.90;;;;;;8378724;28;19928;-76
2022/06/15 05:37:16;;;;;;;;;;;16.50;99.90;;;;;;8385093;28;19932;-76
2022/06/15 05:41:18;;;;;;;;;;;16.50;99.90;;;;;;8381564;28;19924;-76
2022/06/15 05:45:20;;;;;;;;;;;16.70;99.90;;;;;;8386367;28;19932;-76
2022/06/15 05:49:22;;;;;;;;;;;16.70;99.90;;;;;;8384271;28;19951;-76
2022/06/15 05:53:23;;;;;;;;;;;16.80;99.90;;;;;;8379195;28;19928;-76
2022/06/15 05:57:26;;;;;;;;;;;16.90;99.90;;;;;;8382032;28;19932;-76
2022/06/15 06:01:34;;;;;;;;;;;17.00;99.90;;;;;;8384295;28;20012;-76
2022/06/15 06:05:36;;;;;;;;;;;17.10;99.90;;;;;;8376446;28;19924;-75
2022/06/15 06:09:38;;;;;;;;;;;17.20;99.90;;;;;;8386404;28;19924;-76
2022/06/15 06:13:40;;;;;;;;;;;17.30;99.90;;;;;;8388329;28;19932;-76
2022/06/15 06:17:42;;;;;;;;;;;17.40;99.90;;;;;;8391515;28;19948;-76
2022/06/15 06:21:44;;;;;;;;;;;17.50;99.90;;;;;;8397982;28;19936;-76
2022/06/15 06:25:50;;;;;;;;;;;17.60;99.90;;;;;;8385772;28;20320;-75
2022/06/15 06:29:52;;;;;;;;;;;17.70;99.90;;;;;;8393531;28;19924;-75
2022/06/15 06:33:54;;;;;;;;;;;17.80;99.90;;;;;;8394587;28;19928;-75
2022/06/15 06:37:57;;;;;;;;;;;17.90;99.90;;;;;;8405351;28;19928;-74
2022/06/15 06:42:00;;;;;;;;;;;18.00;99.90;;;;;;8390701;28;19939;-75
2022/06/15 06:46:01;;;;;;;;;;;18.20;99.90;;;;;;8387306;28;19931;-75
2022/06/15 06:50:03;;;;;;;;;;;18.30;99.90;;;;;;8395679;28;20284;-75
2022/06/15 06:54:06;;;;;;;;;;;18.40;99.90;;;;;;8398268;28;19929;-76
2022/06/15 06:58:08;;;;;;;;;;;18.50;99.90;;;;;;8389648;28;20284;-76
2022/06/15 07:02:10;;;;;;;;;;;18.60;99.90;;;;;;8404691;28;19928;-76
2022/06/15 07:06:11;;;;;;;;;;;18.70;99.90;;;;;;8402397;28;19988;-76
2022/06/15 07:10:14;;;;;;;;;;;18.90;99.90;;;;;;8396062;28;20527;-76
2022/06/15 07:14:16;;;;;;;;;;;19.00;99.90;;;;;;8401821;28;20046;-76
2022/06/15 07:18:18;;;;;;;;;;;19.10;99.90;;;;;;8396839;28;19920;-75
2022/06/15 07:22:20;;;;;;;;;;;19.20;99.90;;;;;;8398693;28;19943;-76
2022/06/15 07:26:23;;;;;;;;;;;19.30;99.90;;;;;;8390767;28;24084;-76
2022/06/15 07:30:27;;;;;;;;;;;19.50;99.90;;;;;;8398195;28;19952;-77
2022/06/15 07:34:28;;;;;;;;;;;19.50;99.90;;;;;;8400196;28;19947;-76
2022/06/15 07:38:30;;;;;;;;;;;19.60;99.90;;;;;;8401849;28;19928;-76
2022/06/15 07:42:32;;;;;;;;;;;19.70;99.90;;;;;;8396308;28;19920;-76
2022/06/15 07:46:33;;;;;;;;;;;19.80;99.90;;;;;;8388365;28;19928;-76
2022/06/15 07:50:35;;;;;;;;;;;19.90;99.90;;;;;;8398806;28;21478;-76
2022/06/15 07:54:37;;;;;;;;;;;19.90;99.90;;;;;;8402234;28;19928;-76
2022/06/15 07:58:39;;;;;;;;;;;20.00;99.90;;;;;;8396098;28;19927;-76
2022/06/15 08:02:40;;;;;;;;;;;20.10;99.90;;;;;;8402180;28;19927;-76
2022/06/15 08:06:43;;;;;;;;;;;20.20;99.90;;;;;;8396111;28;19935;-76
2022/06/15 08:10:45;;;;;;;;;;;20.20;99.90;;;;;;8390897;28;19927;-76
2022/06/15 08:14:47;;;;;;;;;;;20.30;99.90;;;;;;8373232;28;20355;-77
2022/06/15 08:18:52;;;;;;;;;;;20.30;99.90;;;;;;8372928;28;19928;-76
2022/06/15 08:22:56;;;;;;;;;;;20.30;99.90;;;;;;8369160;28;19925;-76
2022/06/15 08:27:02;;;;;;;;;;;20.30;99.90;;;;;;8372003;28;19931;-76
2022/06/15 08:31:04;;;;;;;;;;;20.30;99.90;;;;;;8387847;28;19928;-75
2022/06/15 08:35:06;;;;;;;;;;;20.40;99.90;;;;;;8375165;28;19924;-76
2022/06/15 08:39:08;;;;;;;;;;;20.40;99.90;;;;;;8376533;28;19924;-76
2022/06/15 08:43:12;;;;;;;;;;;20.50;99.90;;;;;;8409018;27;19924;-76
2022/06/15 08:47:28;;;;;;;;;;;20.50;99.90;;;;;;8375527;28;19924;-76
2022/06/15 08:51:34;;;;;;;;;;;20.60;99.90;;;;;;8371777;28;19925;-75
2022/06/15 08:55:36;;;;;;;;;;;20.60;99.90;;;;;;8370936;28;19931;-76
2022/06/15 09:00:01;;;;;;;;;;;20.60;99.90;;;;;;8392996;28;19967;-76
2022/06/15 09:04:16;;;;;;;;;;;20.70;99.90;;;;;;8372616;28;19920;-76
2022/06/15 09:08:24;;;;;;;;;;;20.80;99.90;;;;;;8377118;28;19920;-76
2022/06/15 09:16:54;;;;;;;;;;;20.90;99.90;;;;;;8374936;28;19929;-76
2022/06/15 09:21:04;;;;;;;;;;;20.90;99.90;;;;;;8378972;28;19920;-76
2022/06/15 09:25:15;;;;;;;;;;;21.00;99.90;;;;;;8371984;28;19927;-76
2022/06/15 09:29:20;;;;;;;;;;;21.00;99.90;;;;;;8372419;28;20382;-76
2022/06/15 09:33:28;;;;;;;;;;;21.10;99.90;;;;;;8376811;28;19935;-76
2022/06/15 09:37:31;;;;;;;;;;;21.10;99.90;;;;;;8386944;28;19921;-75
2022/06/15 09:41:51;;;;;;;;;;;21.20;99.90;;;;;;8377601;28;19924;-75
2022/06/15 09:46:02;;;;;;;;;;;21.30;99.90;;;;;;8371715;28;19924;-76
2022/06/15 09:50:11;;;;;;;;;;;21.30;99.90;;;;;;8388460;28;24075;-76
2022/06/15 09:54:19;;;;;;;;;;;21.40;99.90;;;;;;8371788;28;19966;-76
2022/06/15 09:58:23;;;;;;;;;;;21.40;99.90;;;;;;8392883;28;25065;-76
2022/06/15 10:02:27;;;;;;;;;;;21.50;99.90;;;;;;8361312;28;19932;-76
2022/06/15 10:06:29;;;;;;;;;;;21.60;99.90;;;;;;8377867;28;19931;-76
2022/06/15 10:10:36;;;;;;;;;;;21.60;99.90;;;;;;8366124;28;19920;-76
2022/06/15 10:14:38;;;;;;;;;;;21.60;99.90;;;;;;8358402;28;19925;-76
2022/06/15 10:18:51;;;;;;;;;;;21.70;99.90;;;;;;8366620;28;19921;-76
2022/06/15 10:22:54;;;;;;;;;;;21.70;99.90;;;;;;8361367;28;19924;-76
2022/06/15 10:27:14;;;;;;;;;;;21.80;99.90;;;;;;8365161;28;19944;-76
2022/06/15 10:31:22;;;;;;;;;;;21.90;99.90;;;;;;8361387;28;19920;-76
2022/06/15 10:35:24;;;;;;;;;;;21.90;99.90;;;;;;8363349;28;20312;-76
2022/06/15 10:39:31;;;;;;;;;;;21.90;99.90;;;;;;8357448;28;20399;-76
2022/06/15 10:43:33;;;;;;;;;;;21.90;99.90;;;;;;8360163;28;19925;-76
2022/06/15 10:47:40;;;;;;;;;;;22.00;99.90;;;;;;8381308;28;20404;-76
2022/06/15 10:51:42;;;;;;;;;;;22.10;99.90;;;;;;8359801;28;19940;-76
2022/06/15 11:04:49;;;;;;;;;;;22.20;99.90;;;;;;8359444;28;19944;-77
2022/06/15 11:08:51;;;;;;;;;;;22.30;99.90;;;;;;8373087;28;20257;-76
2022/06/15 11:12:54;;;;;;;;;;;22.40;99.90;;;;;;8359685;28;20397;-76
2022/06/15 11:21:55;;;;;;;;;;;22.40;99.90;;;;;;8335946;28;19921;-76
2022/06/15 11:26:51;;;;;;;;;;;22.50;99.90;;;;;;8360877;28;20000;-76
2022/06/15 11:30:30;;;;;;;;;;;22.60;99.90;;;;;;8358629;28;19927;-76
2022/06/15 11:34:33;;;;;;;;;;;22.60;99.90;;;;;;8359030;28;20574;-76
2022/06/15 11:38:47;;;;;;;;;;;22.70;99.90;;;;;;8362030;28;20300;-76
2022/06/15 11:42:53;;;;;;;;;;;22.80;99.90;;;;;;8362378;28;19921;-76
2022/06/15 11:47:17;;;;;;;;;;;22.80;99.90;;;;;;8362104;28;19951;-76
2022/06/15 11:51:27;;;;;;;;;;;23.00;99.90;;;;;;8359828;28;20235;-76
2022/06/15 11:55:44;;;;;;;;;;;23.00;99.90;;;;;;8359142;28;19921;-76
2022/06/15 12:00:04;;;;;;;;;;;22.90;99.90;;;;;;8364222;28;19944;-77
2022/06/15 12:04:17;;;;;;;;;;;22.90;99.90;;;;;;8360757;28;19932;-76
2022/06/15 12:08:31;;;;;;;;;;;23.00;99.90;;;;;;8385628;28;24074;-76
2022/06/15 12:12:40;;;;;;;;;;;23.00;99.90;;;;;;8356187;28;19943;-76
2022/06/15 12:16:45;;;;;;;;;;;23.10;99.90;;;;;;8357807;28;19999;-77
2022/06/15 12:21:10;;;;;;;;;;;23.10;99.90;;;;;;8359725;28;19932;-76
2022/06/15 12:25:15;;;;;;;;;;;23.10;99.90;;;;;;8356813;28;19924;-76
2022/06/15 12:29:33;;;;;;;;;;;23.10;99.90;;;;;;8360979;28;20383;-77
2022/06/15 12:33:38;;;;;;;;;;;23.10;99.90;;;;;;8360179;28;19931;-76
2022/06/15 12:37:53;;;;;;;;;;;23.10;99.90;;;;;;8374095;28;19932;-77
2022/06/15 12:42:11;;;;;;;;;;;23.20;99.90;;;;;;8362904;28;19958;-76
2022/06/15 12:46:16;;;;;;;;;;;23.30;99.90;;;;;;8361130;28;20375;-77
2022/06/15 12:50:33;;;;;;;;;;;23.30;99.90;;;;;;8364134;28;20003;-76
2022/06/15 12:54:42;;;;;;;;;;;23.40;99.90;;;;;;8378257;28;25057;-77
2022/06/15 12:58:55;;;;;;;;;;;23.50;99.90;;;;;;8365769;28;24222;-77
2022/06/15 13:03:20;;;;;;;;;;;23.50;99.90;;;;;;8364706;28;19935;-77
2022/06/15 13:07:21;;;;;;;;;;;23.50;99.90;;;;;;8355875;28;19924;-77
2022/06/15 13:11:23;;;;;;;;;;;23.50;99.90;;;;;;8352994;28;19935;-77
2022/06/15 13:15:27;;;;;;;;;;;23.50;99.90;;;;;;8372481;28;25128;-76
2022/06/15 13:19:40;;;;;;;;;;;23.60;99.90;;;;;;8361471;28;19986;-76
2022/06/15 13:23:47;;;;;;;;;;;23.60;99.90;;;;;;8355185;28;19928;-76
2022/06/15 13:28:00;;;;;;;;;;;23.70;99.90;;;;;;8350957;28;20041;-77
2022/06/15 13:32:05;;;;;;;;;;;23.70;99.90;;;;;;8360674;28;19921;-76
2022/06/15 13:36:13;;;;;;;;;;;23.80;99.90;;;;;;8368665;28;19924;-76
2022/06/15 13:40:16;;;;;;;;;;;23.80;99.90;;;;;;8377794;28;19920;-77
2022/06/15 13:44:19;;;;;;;;;;;23.90;99.90;;;;;;8359961;28;20430;-76
2022/06/15 13:48:23;;;;;;;;;;;23.90;99.90;;;;;;8360773;28;19971;-76
2022/06/15 13:52:27;;;;;;;;;;;24.00;99.90;;;;;;8365185;28;24089;-77
2022/06/15 13:56:31;;;;;;;;;;;24.00;99.90;;;;;;8363521;28;19924;-76
2022/06/15 14:00:42;;;;;;;;;;;24.00;99.90;;;;;;8366852;28;25134;-77
2022/06/15 14:04:57;;;;;;;;;;;24.00;99.90;;;;;;8361176;28;19920;-76
2022/06/15 14:09:34;;;;;;;;;;;24.10;99.90;;;;;;8397996;27;19931;-76
2022/06/15 14:13:55;;;;;;;;;;;24.10;99.90;;;;;;8311027;28;19921;-77
2022/06/15 14:17:56;;;;;;;;;;;24.20;99.90;;;;;;8364030;28;19920;-77
2022/06/15 14:22:13;;;;;;;;;;;24.20;99.90;;;;;;8373701;28;20295;-76
2022/06/15 14:26:19;;;;;;;;;;;24.30;99.90;;;;;;8370375;28;19924;-77
2022/06/15 14:30:25;;;;;;;;;;;24.40;99.90;;;;;;8354837;28;20360;-76
2022/06/15 14:34:28;;;;;;;;;;;24.50;99.90;;;;;;8371385;28;19936;-76
2022/06/15 14:38:29;;;;;;;;;;;24.50;99.90;;;;;;8360681;28;19947;-76
2022/06/15 14:46:57;;;;;;;;;;;24.60;99.90;;;;;;8371424;28;19920;-76
2022/06/15 14:51:08;;;;;;;;;;;24.70;99.90;;;;;;8385619;28;19935;-76
2022/06/15 14:55:17;;;;;;;;;;;24.80;99.90;;;;;;8361391;28;19928;-76
2022/06/15 14:59:28;;;;;;;;;;;25.00;99.90;;;;;;8390621;27;20379;-76
2022/06/15 15:03:34;;;;;;;;;;;25.00;99.90;;;;;;8357423;28;20210;-76
2022/06/15 15:12:07;;;;;;;;;;;25.00;99.90;;;;;;8360041;28;19947;-77
2022/06/15 15:16:24;;;;;;;;;;;25.00;99.90;;;;;;8356609;28;20329;-76
2022/06/15 15:20:31;;;;;;;;;;;24.90;99.90;;;;;;8364048;28;19947;-77
2022/06/15 15:24:38;;;;;;;;;;;24.90;99.90;;;;;;8365469;28;20364;-76
2022/06/15 15:37:46;;;;;;;;;;;25.00;99.90;;;;;;8355611;28;19932;-76
2022/06/15 15:41:47;;;;;;;;;;;25.00;99.90;;;;;;8363618;28;19928;-76
2022/06/15 15:45:49;;;;;;;;;;;25.10;99.90;;;;;;8356782;28;20315;-76
2022/06/15 15:49:52;;;;;;;;;;;25.10;99.90;;;;;;8364351;28;19935;-76
2022/06/15 15:53:53;;;;;;;;;;;25.10;99.90;;;;;;8363008;28;19928;-77
2022/06/15 15:57:55;;;;;;;;;;;25.20;99.90;;;;;;8362232;28;19925;-76
2022/06/15 16:01:57;;;;;;;;;;;25.30;99.90;;;;;;8360723;28;19921;-76
2022/06/15 16:06:02;;;;;;;;;;;25.60;99.90;;;;;;8355038;28;24077;-76
2022/06/15 16:10:06;;;;;;;;;;;25.80;99.90;;;;;;8390484;28;25135;-76
2022/06/15 16:14:08;;;;;;;;;;;25.80;99.90;;;;;;8352979;28;19929;-76
2022/06/15 16:18:13;;;;;;;;;;;25.50;99.90;;;;;;8364711;28;19935;-76
2022/06/15 16:22:15;;;;;;;;;;;25.40;99.90;;;;;;8387225;28;24089;-76
2022/06/15 16:26:16;;;;;;;;;;;25.60;99.90;;;;;;8359138;28;20402;-77
2022/06/15 16:30:19;;;;;;;;;;;26.20;99.90;;;;;;8353276;28;20359;-77
2022/06/15 16:34:21;;;;;;;;;;;26.70;99.90;;;;;;8354369;28;20397;-76
2022/06/15 16:38:22;;;;;;;;;;;27.30;99.90;;;;;;8352190;28;19927;-76
2022/06/15 16:42:24;;;;;;;;;;;27.80;99.90;;;;;;8384442;28;19920;-76
2022/06/15 16:46:28;;;;;;;;;;;28.10;99.90;;;;;;8355114;28;19925;-76
2022/06/15 16:50:31;;;;;;;;;;;28.50;99.90;;;;;;8356199;28;19940;-77
2022/06/15 16:54:33;;;;;;;;;;;28.80;99.90;;;;;;8352773;28;24077;-76
2022/06/15 16:58:38;;;;;;;;;;;29.00;99.90;;;;;;8364599;28;25065;-76
2022/06/15 17:02:40;;;;;;;;;;;29.10;99.90;;;;;;8356251;28;20358;-77
2022/06/15 17:06:42;;;;;;;;;;;29.30;99.90;;;;;;8366868;28;19931;-76
2022/06/15 17:10:44;;;;;;;;;;;29.40;99.90;;;;;;8360324;28;20241;-76
2022/06/15 17:14:46;;;;;;;;;;;29.50;99.90;;;;;;8359845;28;20372;-77
2022/06/15 17:18:47;;;;;;;;;;;29.30;99.90;;;;;;8361533;28;19921;-76
2022/06/15 17:22:50;;;;;;;;;;;28.90;99.90;;;;;;8361839;28;20368;-76
2022/06/15 17:26:55;;;;;;;;;;;28.30;99.90;;;;;;8360861;28;19944;-76
2022/06/15 17:30:56;;;;;;;;;;;27.80;99.90;;;;;;8361144;28;20342;-76
2022/06/15 17:34:58;;;;;;;;;;;27.40;99.90;;;;;;8373364;28;20368;-77
2022/06/15 17:38:59;;;;;;;;;;;27.00;99.90;;;;;;8352336;28;24141;-76
2022/06/15 17:43:02;;;;;;;;;;;26.60;99.90;;;;;;8354659;28;20369;-76
2022/06/15 17:47:04;;;;;;;;;;;26.30;99.90;;;;;;8363921;28;20352;-76
2022/06/15 17:51:05;;;;;;;;;;;26.10;99.90;;;;;;8360610;28;19996;-76
2022/06/15 17:55:08;;;;;;;;;;;25.90;99.90;;;;;;8358009;28;19932;-76
2022/06/15 17:59:11;;;;;;;;;;;25.70;99.90;;;;;;8380263;28;19960;-76
2022/06/15 18:03:12;;;;;;;;;;;25.60;99.90;;;;;;8349774;28;19943;-75
2022/06/15 18:07:14;;;;;;;;;;;25.40;99.90;;;;;;8355346;28;19928;-75
2022/06/15 18:11:16;;;;;;;;;;;25.20;99.90;;;;;;8393724;28;19920;-75
2022/06/15 18:15:20;;;;;;;;;;;24.90;99.90;;;;;;8375912;28;19933;-75
2022/06/15 18:19:24;;;;;;;;;;;24.80;99.80;;;;;;8364493;28;20009;-76
2022/06/15 18:23:25;;;;;;;;;;;24.70;99.80;;;;;;8351898;28;20631;-76
2022/06/15 18:27:27;;;;;;;;;;;24.60;99.80;;;;;;8392590;28;20004;-75
2022/06/15 18:31:30;;;;;;;;;;;24.50;99.70;;;;;;8360040;28;20372;-75
2022/06/15 18:35:32;;;;;;;;;;;24.40;99.70;;;;;;8360845;28;20405;-76
2022/06/15 18:39:36;;;;;;;;;;;24.30;99.70;;;;;;8356664;28;19935;-76
2022/06/15 18:47:58;;;;;;;;;;;24.10;99.60;;;;;;8361405;28;19998;-76
2022/06/15 18:52:00;;;;;;;;;;;24.00;99.60;;;;;;8361130;28;19928;-75
2022/06/15 18:56:04;;;;;;;;;;;24.00;99.60;;;;;;8356673;28;20043;-75
2022/06/15 19:00:08;;;;;;;;;;;23.80;99.50;;;;;;8363041;28;20640;-75
2022/06/15 19:04:11;;;;;;;;;;;23.80;99.40;;;;;;8356918;28;19932;-76
2022/06/15 19:08:14;;;;;;;;;;;23.70;99.40;;;;;;8358053;28;19968;-76
2022/06/15 19:12:16;;;;;;;;;;;23.60;99.40;;;;;;8354976;28;19929;-75
2022/06/15 19:16:37;;;;;;;;;;;23.50;99.40;;;;;;8355253;28;20450;-75
2022/06/15 19:20:39;;;;;;;;;;;23.50;99.50;;;;;;8366611;28;19982;-75
2022/06/15 19:24:44;;;;;;;;;;;23.40;99.40;;;;;;8363138;28;19936;-75
2022/06/15 19:28:46;;;;;;;;;;;23.30;99.40;;;;;;8369657;28;19925;-78
2022/06/15 19:32:51;;;;;;;;;;;23.20;99.40;;;;;;8360452;28;19935;-76
2022/06/15 19:36:53;;;;;;;;;;;23.10;99.40;;;;;;8366528;28;20249;-75
2022/06/15 19:40:55;;;;;;;;;;;23.00;99.40;;;;;;8361005;28;19951;-75
2022/06/15 19:44:57;;;;;;;;;;;23.00;99.40;;;;;;8359837;28;19920;-75
2022/06/15 19:49:05;;;;;;;;;;;22.90;99.40;;;;;;8366887;28;19929;-75
2022/06/15 19:53:07;;;;;;;;;;;22.80;99.40;;;;;;8357602;28;19928;-75
2022/06/15 19:57:09;;;;;;;;;;;22.70;99.40;;;;;;8359231;28;19929;-76
2022/06/15 20:01:11;;;;;;;;;;;22.70;99.40;;;;;;8354749;28;19939;-75
2022/06/15 20:05:13;;;;;;;;;;;22.60;99.50;;;;;;8357735;28;19924;-76
2022/06/15 20:09:15;;;;;;;;;;;22.50;99.50;;;;;;8355265;28;20311;-76
2022/06/15 20:13:17;;;;;;;;;;;22.40;99.50;;;;;;8362338;28;19932;-76
2022/06/15 20:17:19;;;;;;;;;;;22.40;99.50;;;;;;8360050;28;19928;-76
2022/06/15 20:21:20;;;;;;;;;;;22.30;99.50;;;;;;8357674;28;19921;-76
2022/06/15 20:25:23;;;;;;;;;;;22.30;99.60;;;;;;8356405;28;19932;-76
2022/06/15 20:29:25;;;;;;;;;;;22.20;99.60;;;;;;8354329;28;19928;-75
2022/06/15 20:33:27;;;;;;;;;;;22.10;99.60;;;;;;8359989;28;19920;-76
2022/06/15 20:37:29;;;;;;;;;;;22.00;99.60;;;;;;8370050;28;19935;-76
2022/06/15 20:41:36;;;;;;;;;;;22.00;99.60;;;;;;8362062;28;19956;-76
2022/06/15 20:45:40;;;;;;;;;;;21.90;99.50;;;;;;8361024;28;20296;-76
2022/06/15 20:50:02;;;;;;;;;;;21.90;99.60;;;;;;8358665;28;19971;-76
2022/06/15 20:54:05;;;;;;;;;;;21.80;99.50;;;;;;8361242;28;19921;-76
2022/06/15 20:58:07;;;;;;;;;;;21.80;99.50;;;;;;8360591;28;20387;-76
2022/06/15 21:02:11;;;;;;;;;;;21.80;99.40;;;;;;8375333;28;19924;-76
2022/06/15 21:06:13;;;;;;;;;;;21.70;99.40;;;;;;8387857;28;19959;-76
2022/06/15 21:18:55;;;;;;;;;;;21.50;99.10;;;;;;8380168;28;19921;-75
2022/06/15 21:22:57;;;;;;;;;;;21.40;99.10;;;;;;8422520;28;19920;-76
2022/06/15 21:26:58;;;;;;;;;;;21.40;99.00;;;;;;8385854;28;20375;-76
2022/06/15 21:31:00;;;;;;;;;;;21.30;98.90;;;;;;8392110;28;19920;-76
2022/06/15 21:35:03;;;;;;;;;;;21.30;98.90;;;;;;8399266;28;19921;-76
2022/06/15 21:39:04;;;;;;;;;;;21.30;98.80;;;;;;8380972;28;19924;-76
2022/06/15 21:43:06;;;;;;;;;;;21.20;98.80;;;;;;8397921;28;20300;-76
2022/06/15 21:47:08;;;;;;;;;;;21.20;98.70;;;;;;8386534;28;20344;-75
2022/06/15 21:51:11;;;;;;;;;;;21.10;98.70;;;;;;8401819;28;19920;-76
2022/06/15 21:55:15;;;;;;;;;;;21.10;98.60;;;;;;8428979;27;20186;-76
2022/06/15 21:59:16;;;;;;;;;;;21.00;98.60;;;;;;8397368;28;19924;-76
2022/06/15 22:03:18;;;;;;;;;;;21.00;98.80;;;;;;8396691;28;19924;-75
2022/06/15 22:07:20;;;;;;;;;;;20.90;98.40;;;;;;8417348;28;19935;-76
2022/06/15 22:11:22;;;;;;;;;;;20.90;98.40;;;;;;8397040;28;19924;-76
2022/06/15 22:15:24;;;;;;;;;;;20.90;98.40;;;;;;8391387;28;19924;-76
2022/06/15 22:19:27;;;;;;;;;;;20.80;98.30;;;;;;8394550;28;19924;-76
2022/06/15 22:23:29;;;;;;;;;;;20.80;98.30;;;;;;8388039;28;19928;-75
2022/06/15 22:27:32;;;;;;;;;;;20.70;98.20;;;;;;8374540;28;19925;-75
2022/06/15 22:31:34;;;;;;;;;;;20.60;98.20;;;;;;8393842;28;19946;-76
2022/06/15 22:35:36;;;;;;;;;;;20.60;98.10;;;;;;8382462;28;19928;-76
2022/06/15 22:39:37;;;;;;;;;;;20.50;98.00;;;;;;8392571;28;20307;-75
2022/06/15 22:43:39;;;;;;;;;;;20.50;98.00;;;;;;8384234;28;19929;-75
2022/06/15 22:47:41;;;;;;;;;;;20.40;98.00;;;;;;8394313;28;19928;-76
2022/06/15 22:51:42;;;;;;;;;;;20.30;98.00;;;;;;8387663;28;19955;-77
2022/06/15 22:55:44;;;;;;;;;;;20.30;98.00;;;;;;8384813;28;19924;-75
2022/06/15 22:59:46;;;;;;;;;;;20.20;98.00;;;;;;8389882;28;19924;-76
2022/06/15 23:03:48;;;;;;;;;;;20.20;98.00;;;;;;8386685;28;19947;-76
2022/06/15 23:07:50;;;;;;;;;;;20.20;97.90;;;;;;8382266;28;20436;-75
2022/06/15 23:11:52;;;;;;;;;;;20.10;97.90;;;;;;8398440;28;19924;-76
2022/06/15 23:15:56;;;;;;;;;;;20.10;97.90;;;;;;8395311;28;20296;-76
2022/06/15 23:19:57;;;;;;;;;;;20.00;97.90;;;;;;8392202;28;19924;-76
2022/06/15 23:23:59;;;;;;;;;;;20.00;97.80;;;;;;8388577;28;19952;-76
2022/06/15 23:28:02;;;;;;;;;;;19.90;97.80;;;;;;8396595;28;19932;-76
2022/06/15 23:32:03;;;;;;;;;;;19.90;97.80;;;;;;8370829;28;20265;-76
2022/06/15 23:36:10;;;;;;;;;;;19.80;97.70;;;;;;8389820;28;19931;-75
2022/06/15 23:40:13;;;;;;;;;;;19.70;97.70;;;;;;8384492;28;19947;-76
2022/06/15 23:44:15;;;;;;;;;;;19.70;97.70;;;;;;8380552;28;19924;-75
2022/06/15 23:48:16;;;;;;;;;;;19.60;97.60;;;;;;8378028;28;19985;-75
2022/06/15 23:52:19;;;;;;;;;;;19.60;97.60;;;;;;8376831;28;19935;-76
2022/06/15 23:56:21;;;;;;;;;;;19.50;97.60;;;;;;8382428;28;20433;-76
